Time;durP1;ratioP1;P1;durP2;ratioP2;P2;SDS_P1;SDS_P2;PMS_P1;PMS_P2;Temp;Humidity;BMP_temperature;BMP_pressure;BME280_temperature;BME280_humidity;BME280_pressure;Samples;Min_cycle;Max_cycle;Signal;HPM_P1;HPM_P2
2022/09/28 00:00:28;;;;;;;1.92;1.50;;;9.00;99.90;;;;;;5136035;27;20164;-53
2022/09/28 00:02:57;;;;;;;2.80;1.45;;;9.00;99.90;;;;;;5136010;27;20217;-54
2022/09/28 00:05:25;;;;;;;2.20;1.52;;;9.00;99.90;;;;;;5135999;27;20184;-53
2022/09/28 00:07:55;;;;;;;1.52;1.40;;;9.00;99.90;;;;;;5135844;27;20239;-53
2022/09/28 00:10:24;;;;;;;2.90;2.20;;;9.00;99.90;;;;;;5135988;27;20164;-53
2022/09/28 00:12:51;;;;;;;1.77;1.60;;;9.10;99.90;;;;;;5135925;27;20168;-53
2022/09/28 00:15:17;;;;;;;4.50;1.90;;;9.10;99.90;;;;;;5136130;27;20183;-53
2022/09/28 00:17:46;;;;;;;2.63;1.55;;;9.10;99.90;;;;;;5135881;27;20204;-53
2022/09/28 00:20:12;;;;;;;2.10;1.60;;;9.10;99.90;;;;;;5135901;27;20198;-53
2022/09/28 00:22:38;;;;;;;2.42;1.48;;;9.10;99.90;;;;;;5134271;27;20199;-53
2022/09/28 00:25:05;;;;;;;2.65;1.75;;;9.10;99.90;;;;;;5135975;27;20202;-53
2022/09/28 00:27:31;;;;;;;2.20;1.77;;;9.10;99.90;;;;;;5135609;27;20178;-53
2022/09/28 00:29:56;;;;;;;1.70;1.60;;;9.10;99.90;;;;;;5135579;27;20156;-53
2022/09/28 00:32:23;;;;;;;1.67;1.58;;;9.20;99.90;;;;;;5135743;27;20221;-53
2022/09/28 00:34:50;;;;;;;1.77;1.65;;;9.20;99.90;;;;;;5135684;27;20168;-53
2022/09/28 00:37:17;;;;;;;2.63;1.25;;;9.30;99.90;;;;;;5135414;27;20196;-54
2022/09/28 00:39:44;;;;;;;2.35;1.27;;;9.20;99.90;;;;;;5135643;27;20172;-53
2022/09/28 00:42:25;;;;;;;3.15;1.70;;;9.20;99.90;;;;;;5133992;27;20195;-53
2022/09/28 00:44:55;;;;;;;1.88;1.42;;;9.20;99.90;;;;;;5135595;27;20195;-54
2022/09/28 00:47:44;;;;;;;1.38;1.27;;;9.20;99.90;;;;;;5135202;27;20641;-53
2022/09/28 00:50:21;;;;;;;2.10;1.25;;;9.20;99.90;;;;;;5134391;27;20170;-53
2022/09/28 00:52:46;;;;;;;1.65;1.25;;;9.20;99.90;;;;;;5135101;27;20286;-53
2022/09/28 00:55:17;;;;;;;2.97;1.40;;;9.20;99.90;;;;;;5134879;27;20209;-53
2022/09/28 00:57:48;;;;;;;1.88;1.35;;;9.10;99.90;;;;;;5134934;27;20195;-53
2022/09/28 01:00:15;;;;;;;2.03;1.40;;;9.10;99.90;;;;;;5135114;27;20279;-53
2022/09/28 01:02:41;;;;;;;1.63;1.30;;;9.00;99.90;;;;;;5134909;27;20594;-53
2022/09/28 01:05:09;;;;;;;1.98;1.65;;;9.10;99.90;;;;;;5134788;27;20568;-53
2022/09/28 01:07:35;;;;;;;1.63;1.33;;;9.10;99.90;;;;;;5135057;27;20506;-53
2022/09/28 01:10:01;;;;;;;1.65;1.55;;;9.10;99.90;;;;;;5135044;27;20172;-53
2022/09/28 01:12:27;;;;;;;2.13;1.35;;;9.00;99.90;;;;;;5133357;27;20522;-53
2022/09/28 01:14:53;;;;;;;1.65;1.25;;;9.00;99.90;;;;;;5134574;27;20225;-53
2022/09/28 01:17:33;;;;;;;1.48;1.38;;;8.90;99.90;;;;;;5134554;27;20203;-53
2022/09/28 01:20:18;;;;;;;3.10;1.58;;;9.00;99.90;;;;;;5133379;27;20174;-53
2022/09/28 01:23:21;;;;;;;1.60;1.50;;;8.90;99.90;;;;;;5134490;27;20172;-53
2022/09/28 01:26:11;;;;;;;1.42;1.33;;;8.90;99.90;;;;;;5134462;27;20242;-53
2022/09/28 01:28:38;;;;;;;4.50;1.73;;;8.90;99.90;;;;;;5134437;27;20160;-53
2022/09/28 01:31:13;;;;;;;1.58;1.42;;;8.90;99.90;;;;;;5134589;27;20224;-53
2022/09/28 01:33:46;;;;;;;4.07;1.52;;;8.90;99.90;;;;;;5134185;27;20660;-53
2022/09/28 01:36:22;;;;;;;1.98;1.40;;;8.90;99.90;;;;;;5134131;27;20272;-53
2022/09/28 01:38:52;;;;;;;2.72;1.50;;;8.90;99.90;;;;;;5134180;27;20633;-53
2022/09/28 01:41:19;;;;;;;3.65;1.50;;;8.90;99.90;;;;;;5134072;27;20216;-53
2022/09/28 01:43:50;;;;;;;1.88;1.42;;;8.90;99.90;;;;;;5134382;27;20183;-53
2022/09/28 01:46:23;;;;;;;1.88;1.67;;;8.80;99.90;;;;;;5134084;27;20172;-53
2022/09/28 01:48:56;;;;;;;1.58;1.40;;;8.90;99.90;;;;;;5133968;27;20507;-53
2022/09/28 01:52:02;;;;;;;2.30;1.70;;;8.80;99.90;;;;;;5134212;27;20164;-53
2022/09/28 01:54:47;;;;;;;3.95;1.92;;;8.80;99.90;;;;;;5127855;27;20211;-53
2022/09/28 01:57:24;;;;;;;2.47;2.03;;;8.80;99.90;;;;;;5134016;27;20562;-53
2022/09/28 02:00:12;;;;;;;4.57;2.28;;;8.80;99.90;;;;;;5133587;27;20159;-53
2022/09/28 02:02:52;;;;;;;5.20;2.33;;;8.90;99.90;;;;;;5133735;27;20176;-53
2022/09/28 02:05:32;;;;;;;3.33;2.50;;;8.80;99.90;;;;;;5133792;27;20601;-53
2022/09/28 02:08:27;;;;;;;3.30;2.00;;;8.80;99.90;;;;;;5133614;27;20152;-53
2022/09/28 02:11:17;;;;;;;3.35;2.20;;;8.80;99.90;;;;;;5132925;27;20179;-54
2022/09/28 02:14:05;;;;;;;3.10;2.50;;;8.80;99.90;;;;;;5133529;27;20156;-53
2022/09/28 02:16:39;;;;;;;2.97;2.33;;;8.80;99.90;;;;;;5132828;27;20545;-54
2022/09/28 02:19:08;;;;;;;8.00;2.72;;;8.70;99.90;;;;;;5133662;27;20707;-53
2022/09/28 02:21:46;;;;;;;3.30;2.65;;;8.70;99.90;;;;;;5133683;27;20196;-53
2022/09/28 02:24:23;;;;;;;2.42;2.22;;;8.70;99.90;;;;;;5133309;27;20167;-53
2022/09/28 02:26:50;;;;;;;4.00;3.30;;;8.70;99.90;;;;;;5133483;27;20164;-53
2022/09/28 02:29:16;;;;;;;4.28;3.00;;;8.70;99.90;;;;;;5133239;27;20208;-53
2022/09/28 02:31:42;;;;;;;5.35;3.10;;;8.70;99.90;;;;;;5133192;27;20176;-53
2022/09/28 02:34:08;;;;;;;5.00;2.88;;;8.70;99.90;;;;;;5132995;27;20164;-53
2022/09/28 02:36:34;;;;;;;4.68;3.47;;;8.80;99.90;;;;;;5133470;27;20203;-53
2022/09/28 02:39:01;;;;;;;5.90;3.08;;;8.80;99.90;;;;;;5133270;27;20172;-53
2022/09/28 02:41:38;;;;;;;4.85;3.28;;;8.80;99.90;;;;;;5133220;27;20172;-53
2022/09/28 02:44:32;;;;;;;6.30;3.15;;;8.80;99.90;;;;;;5133610;27;20174;-53
2022/09/28 02:47:13;;;;;;;6.22;3.40;;;8.80;99.90;;;;;;5132954;27;20168;-53
2022/09/28 02:49:58;;;;;;;5.18;3.33;;;8.80;99.90;;;;;;5132914;27;20164;-53
2022/09/28 02:52:56;;;;;;;5.50;3.92;;;8.80;99.90;;;;;;5132919;27;20155;-53
2022/09/28 02:56:00;;;;;;;7.25;4.60;;;8.80;99.90;;;;;;5132746;27;20246;-53
2022/09/28 02:58:41;;;;;;;6.22;4.32;;;8.80;99.90;;;;;;5126822;27;20647;-53
2022/09/28 03:01:12;;;;;;;5.00;4.43;;;8.90;99.90;;;;;;5132832;27;20238;-53
2022/09/28 03:03:49;;;;;;;7.10;5.47;;;8.90;99.90;;;;;;5132681;27;20172;-53
2022/09/28 03:06:25;;;;;;;8.95;5.60;;;8.90;99.90;;;;;;5132572;27;20624;-53
2022/09/28 03:08:59;;;;;;;10.00;6.18;;;8.90;99.90;;;;;;5132653;27;20167;-53
2022/09/28 03:11:35;;;;;;;7.28;6.40;;;8.90;99.90;;;;;;5132105;27;20158;-53
2022/09/28 03:14:02;;;;;;;10.27;6.28;;;9.00;99.90;;;;;;5131323;28;20258;-53
2022/09/28 03:16:30;;;;;;;8.23;5.45;;;8.90;99.90;;;;;;5132617;27;20214;-53
2022/09/28 03:18:56;;;;;;;7.63;6.25;;;9.00;99.90;;;;;;5132763;27;20176;-53
2022/09/28 03:21:22;;;;;;;7.28;6.20;;;9.00;99.90;;;;;;5132608;27;20217;-53
2022/09/28 03:23:47;;;;;;;8.07;6.13;;;9.00;99.90;;;;;;5132568;27;20164;-53
2022/09/28 03:26:15;;;;;;;8.85;5.72;;;9.00;99.90;;;;;;5132481;27;20225;-53
2022/09/28 03:28:40;;;;;;;9.77;5.63;;;9.00;99.90;;;;;;5132457;27;20711;-53
2022/09/28 03:31:06;;;;;;;10.50;6.22;;;9.00;99.90;;;;;;5132962;27;20242;-53
2022/09/28 03:33:31;;;;;;;7.85;5.68;;;9.00;99.90;;;;;;5131396;27;20168;-53
2022/09/28 03:35:57;;;;;;;10.63;6.43;;;9.00;99.90;;;;;;5131024;27;20230;-53
2022/09/28 03:38:23;;;;;;;9.13;6.68;;;9.00;99.90;;;;;;5131352;28;20716;-53
2022/09/28 03:40:53;;;;;;;9.63;7.07;;;9.10;99.90;;;;;;5132505;27;20220;-53
2022/09/28 03:43:19;;;;;;;8.88;6.45;;;9.10;99.90;;;;;;5132640;27;20196;-53
2022/09/28 03:45:54;;;;;;;9.43;7.32;;;9.10;99.90;;;;;;5132335;27;20186;-53
2022/09/28 03:48:22;;;;;;;12.15;7.63;;;9.10;99.90;;;;;;5132272;27;20179;-53
2022/09/28 03:50:47;;;;;;;9.32;7.10;;;9.10;99.90;;;;;;5132446;27;20199;-54
2022/09/28 03:53:13;;;;;;;11.15;8.23;;;9.10;99.90;;;;;;5132239;27;20245;-53
2022/09/28 03:55:38;;;;;;;12.35;8.55;;;9.20;99.90;;;;;;5131942;27;20249;-53
2022/09/28 03:58:04;;;;;;;12.35;8.50;;;9.10;99.90;;;;;;5132490;27;20183;-53
2022/09/28 04:00:29;;;;;;;13.77;8.05;;;9.10;99.90;;;;;;5132043;27;20164;-53
2022/09/28 04:02:55;;;;;;;14.30;8.65;;;9.20;99.90;;;;;;5132072;27;20175;-53
2022/09/28 04:05:20;;;;;;;14.63;9.43;;;9.10;99.90;;;;;;5132260;27;20171;-54
2022/09/28 04:07:46;;;;;;;11.07;8.07;;;9.10;99.90;;;;;;5132145;27;20235;-53
2022/09/28 04:10:11;;;;;;;11.88;9.38;;;9.10;99.90;;;;;;5131945;27;20526;-53
2022/09/28 04:12:37;;;;;;;13.90;9.32;;;9.20;99.90;;;;;;5132124;27;20161;-53
2022/09/28 04:15:03;;;;;;;18.98;9.20;;;9.20;99.90;;;;;;5132481;27;20164;-53
2022/09/28 04:17:29;;;;;;;14.32;9.02;;;9.10;99.90;;;;;;5132006;27;20272;-53
2022/09/28 04:19:54;;;;;;;12.85;8.27;;;9.10;99.90;;;;;;5132066;27;20554;-53
2022/09/28 04:22:20;;;;;;;12.73;9.30;;;9.10;99.90;;;;;;5132254;27;20568;-53
2022/09/28 04:24:45;;;;;;;12.50;7.82;;;9.10;99.90;;;;;;5133927;27;20164;-53
2022/09/28 04:29:55;;;;;;;12.48;8.30;;;9.10;99.90;;;;;;5135341;27;20213;-53
2022/09/28 04:32:21;;;;;;;9.50;7.80;;;9.10;99.90;;;;;;5135219;27;20176;-53
2022/09/28 04:34:46;;;;;;;11.07;8.40;;;9.10;99.90;;;;;;5135414;27;20160;-53
2022/09/28 04:37:12;;;;;;;10.57;7.07;;;9.10;99.90;;;;;;5135281;27;20668;-53
2022/09/28 04:39:39;;;;;;;10.75;7.82;;;9.10;99.90;;;;;;5135215;27;20167;-53
2022/09/28 04:42:04;;;;;;;8.00;6.35;;;9.00;99.90;;;;;;5135867;27;20174;-54
2022/09/28 04:44:30;;;;;;;11.48;7.53;;;9.00;99.90;;;;;;5135109;27;20239;-53
2022/09/28 04:46:55;;;;;;;8.88;6.18;;;9.00;99.90;;;;;;5135031;27;20655;-53
2022/09/28 04:49:23;;;;;;;8.45;6.65;;;;;;;;;;5135173;27;20293;-54
2022/09/28 04:51:49;;;;;;;11.07;6.45;;;9.00;99.90;;;;;;5135290;27;20205;-53
2022/09/28 04:54:15;;;;;;;8.95;5.90;;;8.90;99.90;;;;;;5134942;27;20208;-53
2022/09/28 04:56:40;;;;;;;10.43;6.85;;;8.90;99.90;;;;;;5134902;27;20348;-53
2022/09/28 04:59:06;;;;;;;9.52;5.88;;;8.90;99.90;;;;;;5134623;27;20229;-53
2022/09/28 05:01:31;;;;;;;7.47;6.13;;;8.90;99.90;;;;;;5135166;27;20192;-53
2022/09/28 05:03:57;;;;;;;9.77;6.78;;;8.90;99.90;;;;;;5134822;27;20192;-53
2022/09/28 05:06:26;;;;;;;7.90;5.80;;;8.80;99.90;;;;;;5134692;27;20229;-53
2022/09/28 05:08:52;;;;;;;8.43;6.38;;;8.80;99.90;;;;;;5134775;27;20164;-54
2022/09/28 05:11:20;;;;;;;8.80;6.53;;;8.80;99.90;;;;;;5133369;27;20164;-53
2022/09/28 05:13:47;;;;;;;9.80;6.38;;;8.90;99.90;;;;;;5134976;27;20203;-53
2022/09/28 05:16:14;;;;;;;7.88;5.88;;;8.90;99.90;;;;;;5134754;27;20283;-53
2022/09/28 05:18:40;;;;;;;7.22;5.85;;;8.80;99.90;;;;;;5134464;27;20199;-53
2022/09/28 05:21:14;;;;;;;7.90;5.55;;;8.70;99.90;;;;;;5134464;27;20248;-53
2022/09/28 05:23:44;;;;;;;10.43;6.10;;;8.70;99.90;;;;;;5134262;27;20192;-53
2022/09/28 05:26:10;;;;;;;6.93;5.97;;;8.80;99.90;;;;;;5134686;27;20221;-53
2022/09/28 05:28:35;;;;;;;7.10;5.80;;;8.70;99.90;;;;;;5134213;27;20160;-53
2022/09/28 05:31:03;;;;;;;8.23;6.03;;;8.80;99.90;;;;;;5134579;27;20195;-53
2022/09/28 05:33:30;;;;;;;8.85;5.93;;;8.80;99.90;;;;;;5134283;27;20518;-53
2022/09/28 05:35:56;;;;;;;8.57;5.93;;;8.80;99.90;;;;;;5133814;27;20512;-53
2022/09/28 05:38:22;;;;;;;9.68;5.78;;;8.70;99.90;;;;;;5134066;27;20168;-53
2022/09/28 05:40:47;;;;;;;6.88;5.13;;;8.70;99.90;;;;;;5133950;27;20681;-53
2022/09/28 05:43:13;;;;;;;8.32;4.80;;;8.80;99.90;;;;;;5134069;27;20171;-53
2022/09/28 05:45:38;;;;;;;8.90;5.60;;;8.70;99.90;;;;;;5133759;27;20664;-53
2022/09/28 05:48:04;;;;;;;7.25;5.82;;;8.80;99.90;;;;;;5134145;27;20172;-53
2022/09/28 05:50:29;;;;;;;5.40;4.47;;;8.70;99.90;;;;;;5133714;27;20160;-53
2022/09/28 05:53:00;;;;;;;5.97;4.70;;;8.70;99.90;;;;;;5133797;27;20172;-53
2022/09/28 05:55:25;;;;;;;7.47;6.25;;;8.70;99.90;;;;;;5133648;27;20223;-53
2022/09/28 05:57:51;;;;;;;7.95;4.95;;;8.70;99.90;;;;;;5133688;27;20199;-53
2022/09/28 06:00:17;;;;;;;6.60;5.25;;;8.80;99.90;;;;;;5133790;27;20213;-53
2022/09/28 06:02:43;;;;;;;9.77;5.05;;;8.80;99.90;;;;;;5133575;27;20162;-53
2022/09/28 06:05:09;;;;;;;8.35;5.43;;;8.70;99.90;;;;;;5133600;27;20168;-53
2022/09/28 06:07:34;;;;;;;6.72;4.78;;;8.80;99.90;;;;;;5133766;27;20172;-53
2022/09/28 06:10:00;;;;;;;6.45;4.95;;;8.80;99.90;;;;;;5133839;27;20168;-53
2022/09/28 06:12:26;;;;;;;5.40;4.25;;;8.80;99.90;;;;;;5133329;27;20201;-52
2022/09/28 06:14:51;;;;;;;6.15;4.00;;;8.80;99.90;;;;;;5133374;27;20164;-50
2022/09/28 06:17:17;;;;;;;8.85;5.20;;;8.80;99.90;;;;;;5133133;27;20210;-53
2022/09/28 06:19:43;;;;;;;6.15;5.53;;;8.80;99.90;;;;;;5133210;27;20160;-53
2022/09/28 06:22:08;;;;;;;6.13;4.43;;;8.80;99.90;;;;;;5133435;27;20201;-53
2022/09/28 06:24:34;;;;;;;7.15;5.00;;;8.80;99.90;;;;;;5133462;27;20530;-53
2022/09/28 06:26:59;;;;;;;8.07;5.15;;;8.90;99.90;;;;;;5133449;27;20168;-53
2022/09/28 06:29:25;;;;;;;7.55;4.70;;;8.90;99.90;;;;;;5131743;27;20163;-53
2022/09/28 06:31:50;;;;;;;7.63;4.32;;;8.90;99.90;;;;;;5133094;27;20195;-53
2022/09/28 06:34:17;;;;;;;7.05;4.57;;;8.90;99.90;;;;;;5133020;27;20616;-52
2022/09/28 06:36:43;;;;;;;7.40;4.28;;;9.00;99.90;;;;;;5132887;27;20225;-53
2022/09/28 06:39:08;;;;;;;6.97;4.43;;;8.90;99.90;;;;;;5132935;27;20214;-53
2022/09/28 06:41:34;;;;;;;7.40;4.30;;;8.90;99.90;;;;;;5133251;27;20562;-53
2022/09/28 06:44:00;;;;;;;7.50;4.30;;;5.90;99.90;;;;;;5133180;27;20519;-52
2022/09/28 06:46:26;;;;;;;5.43;4.80;;;9.00;99.90;;;;;;5132052;27;20183;-53
2022/09/28 06:48:52;;;;;;;6.00;4.80;;;9.10;99.90;;;;;;5132747;27;20160;-53
2022/09/28 06:51:17;;;;;;;5.45;4.43;;;9.00;99.90;;;;;;5132436;27;20228;-53
2022/09/28 06:53:43;;;;;;;7.28;4.63;;;9.10;99.90;;;;;;5132771;27;20161;-53
2022/09/28 06:56:10;;;;;;;7.25;4.53;;;9.10;99.90;;;;;;5132239;27;20691;-53
2022/09/28 06:58:35;;;;;;;10.10;3.92;;;9.10;99.90;;;;;;5132862;27;20233;-52
2022/09/28 07:01:01;;;;;;;5.35;4.38;;;9.10;99.90;;;;;;5132811;27;20621;-52
2022/09/28 07:03:27;;;;;;;4.85;3.85;;;9.10;99.90;;;;;;5132603;27;20168;-52
2022/09/28 07:05:54;;;;;;;7.18;4.63;;;9.10;99.90;;;;;;5132608;27;20167;-52
2022/09/28 07:08:23;;;;;;;6.10;4.07;;;9.20;99.90;;;;;;5132570;27;20160;-52
2022/09/28 07:10:54;;;;;;;5.75;4.18;;;9.20;99.90;;;;;;5132744;27;20164;-52
2022/09/28 07:13:22;;;;;;;6.40;3.88;;;9.30;99.90;;;;;;5132474;27;20184;-53
2022/09/28 07:15:47;;;;;;;15.25;5.03;;;9.40;99.90;;;;;;5132760;27;20172;-53
2022/09/28 07:18:13;;;;;;;10.27;4.22;;;9.40;99.90;;;;;;5132505;27;20179;-52
2022/09/28 07:20:38;;;;;;;6.43;4.00;;;9.50;99.90;;;;;;5132395;27;20168;-53
2022/09/28 07:23:06;;;;;;;7.05;4.38;;;9.50;99.90;;;;;;5132707;27;20624;-53
2022/09/28 07:25:35;;;;;;;5.75;3.58;;;9.50;99.90;;;;;;5132549;27;20157;-52
2022/09/28 07:28:02;;;;;;;4.40;3.47;;;9.50;99.90;;;;;;5132553;27;20636;-53
2022/09/28 07:30:31;;;;;;;5.90;4.18;;;9.60;99.90;;;;;;5132273;27;20172;-53
2022/09/28 07:32:58;;;;;;;8.43;3.92;;;9.70;99.90;;;;;;5132242;27;20186;-52
2022/09/28 07:35:23;;;;;;;8.43;4.20;;;9.70;99.90;;;;;;5131896;27;20171;-53
2022/09/28 07:38:03;;;;;;;4.03;3.35;;;9.70;99.90;;;;;;5132346;27;20199;-52
2022/09/28 07:43:19;;;;;;;4.47;3.28;;;9.80;99.90;;;;;;5132637;28;20178;-52
2022/09/28 07:45:46;;;;;;;6.50;4.25;;;9.80;99.90;;;;;;5132190;27;20641;-53
2022/09/28 07:48:14;;;;;;;5.40;3.60;;;9.90;99.90;;;;;;5132195;27;20214;-52
2022/09/28 07:50:41;;;;;;;5.68;4.10;;;9.90;99.90;;;;;;5131840;27;20243;-52
2022/09/28 07:53:07;;;;;;;5.20;3.45;;;10.00;99.90;;;;;;5132074;27;20164;-52
2022/09/28 07:55:32;;;;;;;4.15;3.55;;;10.10;99.90;;;;;;5131889;27;20569;-53
2022/09/28 07:58:00;;;;;;;6.32;3.90;;;10.10;99.90;;;;;;5132944;27;20206;-53
2022/09/28 08:00:31;;;;;;;4.82;3.72;;;10.20;99.90;;;;;;5135706;27;20189;-53
2022/09/28 08:03:02;;;;;;;4.10;3.15;;;10.30;99.90;;;;;;5136254;27;20228;-53
2022/09/28 08:05:30;;;;;;;6.85;3.85;;;10.30;99.90;;;;;;5135629;27;20164;-53
2022/09/28 08:07:57;;;;;;;5.15;3.20;;;10.30;99.90;;;;;;5135929;27;20297;-53
2022/09/28 08:10:24;;;;;;;4.13;2.92;;;10.40;99.90;;;;;;5135906;27;20179;-53
2022/09/28 08:12:57;;;;;;;5.57;3.20;;;10.40;99.90;;;;;;5135625;27;20186;-53
2022/09/28 08:15:23;;;;;;;3.88;2.50;;;10.40;99.90;;;;;;5135428;27;20167;-53
2022/09/28 08:17:49;;;;;;;7.68;2.58;;;10.40;99.90;;;;;;5135564;27;20694;-53
2022/09/28 08:23:07;;;;;;;4.82;2.55;;;10.40;99.90;;;;;;5135971;27;20293;-53
2022/09/28 08:25:35;;;;;;;6.43;2.60;;;10.50;99.90;;;;;;5135736;27;20250;-52
2022/09/28 08:28:01;;;;;;;4.50;2.40;;;10.70;99.90;;;;;;5136121;27;20182;-53
2022/09/28 08:30:27;;;;;;;2.88;1.92;;;10.70;99.90;;;;;;5135204;27;20164;-53
2022/09/28 08:32:52;;;;;;;5.18;2.85;;;10.70;99.90;;;;;;5135499;27;20210;-52
2022/09/28 08:35:18;;;;;;;3.63;2.10;;;10.70;99.90;;;;;;5135301;27;20164;-52
2022/09/28 08:37:51;;;;;;;3.67;2.33;;;10.70;99.90;;;;;;5135575;27;20735;-54
2022/09/28 08:40:23;;;;;;;3.35;2.13;;;10.90;99.90;;;;;;5135198;27;20258;-53
2022/09/28 08:42:52;;;;;;;7.40;3.28;;;10.90;99.90;;;;;;5135013;27;20176;-52
2022/09/28 08:45:25;;;;;;;4.47;1.90;;;11.00;99.90;;;;;;5134794;27;20483;-52
2022/09/28 08:51:05;;;;;;;6.03;2.40;;;11.20;99.90;;;;;;5135195;27;20171;-52
2022/09/28 08:53:40;;;;;;;4.25;2.38;;;11.20;99.90;;;;;;5135495;27;20248;-52
2022/09/28 08:56:13;;;;;;;2.83;1.88;;;11.40;99.90;;;;;;5134233;27;20218;-53
2022/09/28 08:58:43;;;;;;;2.17;1.98;;;11.50;99.90;;;;;;5133618;27;20176;-52
2022/09/28 09:01:15;;;;;;;1.45;1.35;;;11.40;99.90;;;;;;5134595;27;20263;-52
2022/09/28 09:03:43;;;;;;;2.40;1.63;;;11.50;99.90;;;;;;5134817;27;20633;-51
2022/09/28 09:06:44;;;;;;;2.17;1.80;;;11.50;99.90;;;;;;5134200;27;20629;-51
2022/09/28 09:09:13;;;;;;;1.70;1.45;;;11.50;99.90;;;;;;5134125;27;20659;-52
2022/09/28 09:12:02;;;;;;;2.17;1.30;;;11.50;99.90;;;;;;5134555;27;20220;-52
2022/09/28 09:14:43;;;;;;;2.65;1.20;;;10.90;99.90;;;;;;5134774;27;20255;-52
2022/09/28 09:17:27;;;;;;;1.55;1.35;;;11.70;99.90;;;;;;5134503;27;20698;-52
2022/09/28 09:19:57;;;;;;;3.30;1.42;;;11.70;99.90;;;;;;5134320;27;20242;-52
2022/09/28 09:22:35;;;;;;;2.65;1.20;;;12.00;99.90;;;;;;5134033;27;20256;-52
2022/09/28 09:25:27;;;;;;;1.70;1.00;;;11.90;99.90;;;;;;5134437;27;20238;-52
2022/09/28 09:28:03;;;;;;;3.15;1.20;;;12.10;99.90;;;;;;5134589;27;20160;-53
2022/09/28 09:30:40;;;;;;;2.28;1.15;;;12.10;99.90;;;;;;5134039;27;20534;-52
2022/09/28 09:33:27;;;;;;;3.72;1.40;;;12.40;99.90;;;;;;5134002;27;20186;-52
2022/09/28 09:36:26;;;;;;;1.90;1.35;;;12.40;99.90;;;;;;5133723;27;20168;-52
2022/09/28 09:39:01;;;;;;;2.33;1.08;;;12.60;99.90;;;;;;5133630;27;20262;-52
2022/09/28 09:41:45;;;;;;;2.50;1.30;;;12.70;99.90;;;;;;5133701;27;20167;-52
2022/09/28 09:44:40;;;;;;;1.58;1.17;;;12.60;99.90;;;;;;5133997;27;20247;-52
2022/09/28 09:47:10;;;;;;;0.80;0.80;;;12.70;99.90;;;;;;5134657;27;20225;-52
2022/09/28 09:49:41;;;;;;;2.03;1.20;;;12.70;99.90;;;;;;5133932;27;20195;-52
2022/09/28 09:52:34;;;;;;;1.35;1.25;;;12.70;99.90;;;;;;5134027;27;20536;-52
2022/09/28 09:55:09;;;;;;;1.63;1.17;;;12.60;99.90;;;;;;5133641;27;20295;-52
2022/09/28 09:57:50;;;;;;;1.45;1.20;;;12.60;99.90;;;;;;5133441;27;20199;-53
2022/09/28 10:00:16;;;;;;;2.55;1.42;;;12.50;99.90;;;;;;5133725;27;20610;-52
2022/09/28 10:02:46;;;;;;;1.55;1.10;;;12.80;99.90;;;;;;5133708;27;20197;-52
2022/09/28 10:05:11;;;;;;;3.30;1.23;;;13.00;99.90;;;;;;5132753;27;20164;-52
2022/09/28 10:07:43;;;;;;;1.40;1.30;;;13.30;99.90;;;;;;5133110;27;20532;-52
2022/09/28 10:10:20;;;;;;;2.38;1.10;;;13.60;99.90;;;;;;5133728;27;20164;-52
2022/09/28 10:12:48;;;;;;;2.30;1.40;;;13.60;99.90;;;;;;5133534;27;20175;-52
2022/09/28 10:15:18;;;;;;;3.45;1.58;;;13.80;99.90;;;;;;5133497;27;20624;-52
2022/09/28 10:17:43;;;;;;;1.65;1.10;;;14.20;99.90;;;;;;5133611;27;20627;-53
2022/09/28 10:20:14;;;;;;;2.83;1.05;;;14.10;99.90;;;;;;5133305;27;20195;-53
2022/09/28 10:22:41;;;;;;;3.22;1.10;;;13.90;99.90;;;;;;5132567;27;20182;-53
2022/09/28 10:25:08;;;;;;;4.47;1.15;;;13.90;99.90;;;;;;5132413;27;20205;-53
2022/09/28 10:27:38;;;;;;;1.98;1.33;;;14.00;99.90;;;;;;5131856;27;20203;-53
2022/09/28 10:30:09;;;;;;;1.95;1.13;;;14.40;99.90;;;;;;5133148;27;20694;-53
2022/09/28 10:32:38;;;;;;;1.38;1.02;;;14.30;99.90;;;;;;5132813;27;20265;-53
2022/09/28 10:35:21;;;;;;;1.88;1.15;;;14.00;99.90;;;;;;5133005;27;20157;-53
2022/09/28 10:38:02;;;;;;;2.83;1.27;;;14.00;99.90;;;;;;5132727;27;20287;-53
2022/09/28 10:40:43;;;;;;;1.40;1.00;;;14.10;99.90;;;;;;5133081;27;20196;-53
2022/09/28 10:43:25;;;;;;;0.82;0.80;;;13.80;99.90;;;;;;5132965;27;20198;-53
2022/09/28 10:46:21;;;;;;;1.77;1.00;;;13.60;99.90;;;;;;5132996;27;20163;-53
2022/09/28 10:49:15;;;;;;;2.22;0.98;;;13.60;99.90;;;;;;5132030;27;20186;-53
2022/09/28 10:51:50;;;;;;;1.98;1.02;;;13.50;99.90;;;;;;5129843;27;20180;-52
2022/09/28 10:54:24;;;;;;;3.95;1.20;;;13.40;99.90;;;;;;5132525;27;20211;-53
2022/09/28 10:56:52;;;;;;;1.35;1.13;;;14.00;99.90;;;;;;5133258;27;20243;-53
2022/09/28 10:59:30;;;;;;;2.10;1.30;;;14.30;99.90;;;;;;5132445;27;20164;-53
2022/09/28 11:02:16;;;;;;;2.38;1.40;;;14.50;99.90;;;;;;5131061;27;20211;-53
2022/09/28 11:04:50;;;;;;;2.42;0.95;;;14.40;99.90;;;;;;5131510;27;20273;-53
2022/09/28 11:07:27;;;;;;;2.20;1.35;;;14.90;99.90;;;;;;5132610;27;20175;-53
2022/09/28 11:09:54;;;;;;;2.17;1.30;;;15.10;99.90;;;;;;5131251;27;20574;-53
2022/09/28 11:12:23;;;;;;;3.05;1.02;;;15.20;99.90;;;;;;5132468;27;20213;-53
2022/09/28 11:14:55;;;;;;;3.58;1.17;;;15.30;99.90;;;;;;5132315;27;20212;-53
2022/09/28 11:17:43;;;;;;;2.55;1.05;;;15.30;99.90;;;;;;5131181;27;20211;-53
2022/09/28 11:20:24;;;;;;;3.22;1.13;;;14.90;99.90;;;;;;5132427;27;20152;-53
2022/09/28 11:22:52;;;;;;;2.72;1.05;;;14.40;99.90;;;;;;5132416;27;20164;-53
2022/09/28 11:25:17;;;;;;;1.25;1.00;;;14.30;99.90;;;;;;5132501;27;20156;-53
2022/09/28 11:27:52;;;;;;;1.02;0.90;;;14.50;99.90;;;;;;5132316;27;20625;-54
2022/09/28 11:30:37;;;;;;;1.45;1.00;;;14.50;99.90;;;;;;5132299;27;20163;-53
2022/09/28 11:33:25;;;;;;;1.80;1.10;;;15.20;99.90;;;;;;5133605;27;20164;-53
2022/09/28 11:36:17;;;;;;;1.42;1.10;;;14.80;99.90;;;;;;5136315;27;20628;-53
2022/09/28 11:39:10;;;;;;;1.42;0.90;;;14.60;99.90;;;;;;5136300;27;20164;-53
2022/09/28 11:42:10;;;;;;;3.28;1.02;;;14.30;99.90;;;;;;5136658;27;20536;-53
2022/09/28 11:44:45;;;;;;;1.38;0.93;;;14.10;99.90;;;;;;5110206;27;20172;-53
2022/09/28 11:47:19;;;;;;;2.25;1.27;;;14.30;99.90;;;;;;5135722;27;20206;-53
2022/09/28 11:49:53;;;;;;;2.92;1.20;;;14.20;99.90;;;;;;5136047;27;20571;-53
2022/09/28 11:52:29;;;;;;;2.22;1.40;;;14.30;99.90;;;;;;5136402;27;20217;-53
2022/09/28 11:55:17;;;;;;;3.35;1.00;;;14.30;99.90;;;;;;5135922;27;20246;-53
2022/09/28 11:57:47;;;;;;;1.73;0.90;;;14.30;99.90;;;;;;5136267;27;20284;-53
2022/09/28 12:00:17;;;;;;;1.85;1.30;;;14.30;99.90;;;;;;5136032;27;20160;-53
2022/09/28 12:02:57;;;;;;;2.85;1.15;;;14.30;99.90;;;;;;5135763;27;20179;-53
2022/09/28 12:05:27;;;;;;;2.55;1.23;;;14.30;99.90;;;;;;5135855;27;20156;-53
2022/09/28 12:08:01;;;;;;;1.75;1.02;;;14.20;99.90;;;;;;5135749;27;20156;-53
2022/09/28 12:10:44;;;;;;;1.42;1.05;;;14.20;99.90;;;;;;5135760;27;20164;-53
2022/09/28 12:13:21;;;;;;;2.92;1.17;;;14.30;99.90;;;;;;5135964;27;20182;-53
2022/09/28 12:15:54;;;;;;;2.72;1.10;;;14.40;99.90;;;;;;5135446;27;20176;-53
2022/09/28 12:18:28;;;;;;;2.13;0.93;;;14.30;99.90;;;;;;5135232;27;20168;-53
2022/09/28 12:21:08;;;;;;;0.80;0.80;;;14.20;99.90;;;;;;5135585;27;20167;-53
2022/09/28 12:23:36;;;;;;;1.23;1.00;;;14.30;99.90;;;;;;5135617;27;20167;-53
2022/09/28 12:26:10;;;;;;;2.78;1.08;;;14.30;99.90;;;;;;5135372;27;20255;-54
2022/09/28 12:28:47;;;;;;;2.58;1.10;;;14.40;99.90;;;;;;5135404;27;20640;-53
2022/09/28 12:31:22;;;;;;;0.85;0.80;;;14.50;99.90;;;;;;5135032;27;20171;-53
2022/09/28 12:33:50;;;;;;;1.77;1.15;;;14.40;99.90;;;;;;5135202;27;20167;-53
2022/09/28 12:36:29;;;;;;;4.18;1.10;;;14.30;99.90;;;;;;5134578;27;20241;-53
2022/09/28 12:39:30;;;;;;;1.35;1.10;;;14.40;99.90;;;;;;5134839;27;20255;-53
2022/09/28 12:42:20;;;;;;;1.08;0.82;;;14.30;99.90;;;;;;5134977;27;20171;-53
2022/09/28 12:45:10;;;;;;;1.02;0.90;;;14.40;99.90;;;;;;5133657;27;20169;-53
2022/09/28 12:47:54;;;;;;;3.35;1.50;;;14.90;99.90;;;;;;5134660;27;20164;-53
2022/09/28 12:50:48;;;;;;;1.90;1.77;;;14.60;99.90;;;;;;5135152;27;20220;-53
2022/09/28 12:53:33;;;;;;;3.83;1.40;;;14.50;99.90;;;;;;5134865;27;20171;-53
2022/09/28 12:56:10;;;;;;;1.48;0.65;;;14.40;99.90;;;;;;5135008;27;20260;-53
2022/09/28 12:58:58;;;;;;;1.40;1.00;;;14.40;99.90;;;;;;5134817;27;20175;-53
2022/09/28 13:01:54;;;;;;;1.08;0.90;;;14.40;99.90;;;;;;5134794;27;20192;-53
2022/09/28 13:04:44;;;;;;;1.88;1.15;;;14.40;99.90;;;;;;5134373;27;20168;-54
2022/09/28 13:07:10;;;;;;;1.55;0.88;;;14.80;99.90;;;;;;5134574;27;20175;-53
2022/09/28 13:10:00;;;;;;;3.03;1.13;;;14.60;99.90;;;;;;5134874;27;20247;-53
2022/09/28 13:12:35;;;;;;;0.95;0.77;;;14.50;99.90;;;;;;5134416;27;20681;-53
2022/09/28 13:15:26;;;;;;;3.50;1.45;;;14.50;99.90;;;;;;5134472;27;20166;-53
2022/09/28 13:18:01;;;;;;;1.52;0.98;;;14.70;99.90;;;;;;5134489;27;20250;-53
2022/09/28 13:20:34;;;;;;;2.53;1.30;;;15.00;99.90;;;;;;5134467;27;20159;-53
2022/09/28 13:23:20;;;;;;;1.60;0.95;;;14.90;99.90;;;;;;5133113;27;20225;-53
2022/09/28 13:26:03;;;;;;;1.17;0.82;;;14.80;99.90;;;;;;5134259;27;20194;-53
2022/09/28 13:28:31;;;;;;;4.70;3.15;;;15.00;99.90;;;;;;5134526;27;20263;-53
2022/09/28 13:30:58;;;;;;;3.55;1.00;;;15.00;99.90;;;;;;5134094;27;20528;-53